createdAt,value
2019-03-21T00:01:23.317Z,4.50
2019-03-21T00:03:55.621Z,4.40
2019-03-21T00:06:25.318Z,4.40
2019-03-21T00:08:55.104Z,4.30
2019-03-21T00:11:58.615Z,4.30
2019-03-21T00:14:55.198Z,4.30
2019-03-21T00:17:27.859Z,4.20
2019-03-21T00:19:57.689Z,4.20
2019-03-21T00:22:27.365Z,4.00
2019-03-21T00:24:57.084Z,3.80
2019-03-21T00:27:26.867Z,3.80
2019-03-21T00:29:56.583Z,4.00
2019-03-21T00:32:26.347Z,4.00
2019-03-21T00:34:56.042Z,4.20
2019-03-21T00:37:25.755Z,4.20
2019-03-21T00:39:55.536Z,4.20
2019-03-21T00:42:25.200Z,4.20
2019-03-21T00:44:54.899Z,4.00
2019-03-21T00:47:24.656Z,4.00
2019-03-21T00:49:54.545Z,3.90
2019-03-21T00:52:24.235Z,4.00
2019-03-21T00:54:53.971Z,4.00
2019-03-21T00:57:23.707Z,4.10
2019-03-21T00:59:53.387Z,4.00
2019-03-21T01:02:23.504Z,3.90
2019-03-21T01:04:53.371Z,3.90
2019-03-21T01:07:23.204Z,3.90
2019-03-21T01:09:52.921Z,3.90
2019-03-21T01:12:22.693Z,3.90
2019-03-21T01:14:52.384Z,3.80
2019-03-21T01:17:22.107Z,3.80
2019-03-21T01:19:51.876Z,3.80
2019-03-21T01:22:21.604Z,3.80
2019-03-21T01:24:51.391Z,3.80
2019-03-21T01:27:21.182Z,3.70
2019-03-21T01:29:50.882Z,3.70
2019-03-21T01:32:20.665Z,3.70
2019-03-21T01:34:50.439Z,3.70
2019-03-21T01:37:20.241Z,3.80
2019-03-21T01:39:50.069Z,3.60
2019-03-21T01:42:19.915Z,3.70
2019-03-21T01:44:49.599Z,3.70
2019-03-21T01:47:19.536Z,3.70
2019-03-21T01:49:49.194Z,3.60
2019-03-21T01:52:18.969Z,3.60
2019-03-21T01:54:48.649Z,3.60
2019-03-21T01:57:18.412Z,3.60
2019-03-21T01:59:48.204Z,3.60
2019-03-21T02:02:17.953Z,3.70
2019-03-21T02:04:47.653Z,3.70
2019-03-21T02:07:17.436Z,3.60
2019-03-21T02:09:47.248Z,3.60
2019-03-21T02:12:16.924Z,3.60
2019-03-21T02:14:52.063Z,3.50
2019-03-21T02:17:18.112Z,3.50
2019-03-21T02:19:47.814Z,3.60
2019-03-21T02:22:17.500Z,3.60
2019-03-21T02:24:47.281Z,3.60
2019-03-21T02:27:16.915Z,3.40
2019-03-21T02:29:46.692Z,3.30
2019-03-21T02:32:18.672Z,3.20
2019-03-21T02:34:48.696Z,3.20
2019-03-21T02:37:18.413Z,3.20
2019-03-21T02:39:58.838Z,3.10
2019-03-21T02:42:19.632Z,3.00
2019-03-21T02:44:49.414Z,3.00
2019-03-21T02:47:19.167Z,2.80
2019-03-21T02:49:48.933Z,2.70
2019-03-21T02:52:18.610Z,2.80
2019-03-21T02:54:48.317Z,2.80
2019-03-21T02:57:18.103Z,2.90
2019-03-21T02:59:47.797Z,2.90
2019-03-21T03:02:17.475Z,2.90
2019-03-21T03:04:47.229Z,2.90
2019-03-21T03:07:16.925Z,2.90
2019-03-21T03:09:46.730Z,2.90
2019-03-21T03:12:16.518Z,2.90
2019-03-21T03:14:46.332Z,2.90
2019-03-21T03:17:17.116Z,2.90
2019-03-21T03:19:46.940Z,2.90
2019-03-21T03:22:16.595Z,2.90
2019-03-21T03:24:46.348Z,2.90
2019-03-21T03:27:16.151Z,2.80
2019-03-21T03:29:45.964Z,2.70
2019-03-21T03:32:15.731Z,2.60
2019-03-21T03:34:45.452Z,2.50
2019-03-21T03:37:15.233Z,2.50
2019-03-21T03:39:44.995Z,2.50
2019-03-21T03:42:14.703Z,2.50
2019-03-21T03:44:44.373Z,2.60
2019-03-21T03:47:14.076Z,2.50
2019-03-21T03:49:43.734Z,2.40
2019-03-21T03:52:13.444Z,2.50
2019-03-21T03:54:43.113Z,2.50
2019-03-21T03:57:12.885Z,2.40
2019-03-21T03:59:42.542Z,2.30
2019-03-21T04:02:12.274Z,2.10
2019-03-21T04:04:42.054Z,2.10
2019-03-21T04:07:11.803Z,2.20
2019-03-21T04:09:41.565Z,2.10
2019-03-21T04:12:11.245Z,2.30
2019-03-21T04:14:40.929Z,2.30
2019-03-21T04:17:10.623Z,2.30
2019-03-21T04:19:40.311Z,2.30
2019-03-21T04:22:11.320Z,2.20
2019-03-21T04:24:41.049Z,2.20
2019-03-21T04:27:10.831Z,2.30
2019-03-21T04:29:40.508Z,2.30
2019-03-21T04:32:10.201Z,2.10
2019-03-21T04:34:39.888Z,2.20
2019-03-21T04:37:09.613Z,2.20
2019-03-21T04:39:39.394Z,2.30
2019-03-21T04:42:09.079Z,2.30
2019-03-21T04:44:38.829Z,2.30
2019-03-21T04:47:08.529Z,2.30
2019-03-21T04:49:38.217Z,2.20
2019-03-21T04:52:07.967Z,2.20
2019-03-21T04:54:37.701Z,2.20
2019-03-21T04:57:07.558Z,2.30
2019-03-21T04:59:37.357Z,2.20
2019-03-21T05:02:07.022Z,2.20
2019-03-21T05:04:36.777Z,2.20
2019-03-21T05:07:06.590Z,2.30
2019-03-21T05:09:36.401Z,2.20
2019-03-21T05:12:06.131Z,2.20
2019-03-21T05:14:35.907Z,2.30
2019-03-21T05:17:05.638Z,2.20
2019-03-21T05:19:35.334Z,2.10
2019-03-21T05:22:05.053Z,2.20
2019-03-21T05:24:34.840Z,2.20
2019-03-21T05:27:04.532Z,2.20
2019-03-21T05:29:34.422Z,2.20
2019-03-21T05:32:04.087Z,2.20
2019-03-21T05:34:33.791Z,2.20
2019-03-21T05:37:03.549Z,2.30
2019-03-21T05:39:33.315Z,2.40
2019-03-21T05:42:05.054Z,2.30
2019-03-21T05:44:38.515Z,2.30
2019-03-21T05:47:08.201Z,2.20
2019-03-21T05:49:37.923Z,2.30
2019-03-21T05:52:09.330Z,2.30
2019-03-21T05:54:39.144Z,2.30
2019-03-21T05:57:08.865Z,2.30
2019-03-21T05:59:38.580Z,2.30
2019-03-21T06:02:08.370Z,2.40
2019-03-21T06:04:38.034Z,2.40
2019-03-21T06:07:23.774Z,2.50
2019-03-21T06:09:53.472Z,2.60
2019-03-21T06:12:23.157Z,2.60
2019-03-21T06:14:58.712Z,2.60
2019-03-21T06:17:29.406Z,2.60
2019-03-21T06:20:54.081Z,2.60
2019-03-21T06:23:44.673Z,2.60
2019-03-21T06:26:34.534Z,2.70
2019-03-21T06:29:04.314Z,2.70
2019-03-21T06:31:34.127Z,2.80
2019-03-21T06:34:03.792Z,2.80
2019-03-21T06:36:33.535Z,2.80
2019-03-21T06:39:04.767Z,2.90
2019-03-21T06:41:34.458Z,2.90
2019-03-21T06:44:04.143Z,3.00
2019-03-21T06:46:33.816Z,3.00
2019-03-21T06:49:03.501Z,3.10
2019-03-21T06:51:33.280Z,3.20
2019-03-21T06:54:03.033Z,3.20
2019-03-21T06:56:33.001Z,3.30
2019-03-21T06:59:02.773Z,3.40
2019-03-21T07:01:32.476Z,3.40
2019-03-21T07:04:06.934Z,3.40
2019-03-21T07:06:33.950Z,3.50
2019-03-21T07:09:05.664Z,3.60
2019-03-21T07:11:35.483Z,3.60
2019-03-21T07:14:05.447Z,3.70
2019-03-21T07:16:35.154Z,3.80
2019-03-21T07:19:06.503Z,3.80
2019-03-21T07:21:36.289Z,3.90
2019-03-21T07:24:07.484Z,4.10
2019-03-21T07:26:37.552Z,4.40
2019-03-21T07:29:07.361Z,4.60
2019-03-21T07:31:37.121Z,5.00
2019-03-21T07:34:06.895Z,5.40
2019-03-21T07:36:36.649Z,5.70
2019-03-21T07:39:08.428Z,6.00
2019-03-21T07:41:38.238Z,6.30
2019-03-21T07:44:08.032Z,6.60
2019-03-21T07:46:37.760Z,7.00
2019-03-21T07:49:07.440Z,7.10
2019-03-21T07:51:37.126Z,7.30
2019-03-21T07:54:06.909Z,7.50
2019-03-21T07:56:36.577Z,7.80
2019-03-21T07:59:06.329Z,7.70
2019-03-21T08:01:35.999Z,7.90
2019-03-21T08:04:06.086Z,8.10
2019-03-21T08:06:35.864Z,8.40
2019-03-21T08:09:07.462Z,8.60
2019-03-21T08:11:38.580Z,8.70
2019-03-21T08:14:08.363Z,8.80
2019-03-21T08:16:38.080Z,9.00
2019-03-21T08:19:07.763Z,9.00
2019-03-21T08:21:37.472Z,8.40
2019-03-21T08:24:07.268Z,8.90
2019-03-21T08:26:37.068Z,9.10
2019-03-21T08:29:06.789Z,9.20
2019-03-21T08:31:36.480Z,9.30
2019-03-21T08:34:06.165Z,9.10
2019-03-21T08:36:35.880Z,9.30
2019-03-21T08:39:08.311Z,9.60
2019-03-21T08:41:38.293Z,9.40
2019-03-21T08:44:07.980Z,9.00
2019-03-21T08:46:37.777Z,8.90
2019-03-21T08:49:07.522Z,9.00
2019-03-21T08:51:37.256Z,8.90
2019-03-21T08:54:06.967Z,8.80
2019-03-21T08:56:36.730Z,9.00
2019-03-21T08:59:06.422Z,9.10
2019-03-21T09:01:36.298Z,9.30
2019-03-21T09:04:06.033Z,9.20
2019-03-21T09:06:35.786Z,9.40
2019-03-21T09:09:07.821Z,9.30
2019-03-21T09:11:37.997Z,9.50
2019-03-21T09:14:07.779Z,9.60
2019-03-21T09:16:37.552Z,9.60
2019-03-21T09:19:07.353Z,9.60
2019-03-21T09:21:37.030Z,9.50
2019-03-21T09:24:06.824Z,9.70
2019-03-21T09:26:36.765Z,9.80
2019-03-21T09:29:06.545Z,9.80
2019-03-21T09:31:36.261Z,9.90
2019-03-21T09:34:06.044Z,10.00
2019-03-21T09:36:35.896Z,10.00
2019-03-21T09:39:07.609Z,10.00
2019-03-21T09:41:37.612Z,10.10
2019-03-21T09:44:07.339Z,10.30
2019-03-21T09:46:37.364Z,10.20
2019-03-21T09:49:07.098Z,10.40
2019-03-21T09:51:36.871Z,10.40
2019-03-21T09:54:09.858Z,10.60
2019-03-21T09:56:38.038Z,10.60
2019-03-21T09:59:07.804Z,10.70
2019-03-21T10:01:37.888Z,10.90
2019-03-21T10:04:07.610Z,10.90
2019-03-21T10:06:37.361Z,11.00
2019-03-21T10:09:09.047Z,11.00
2019-03-21T10:11:38.767Z,11.10
2019-03-21T10:14:08.562Z,11.30
2019-03-21T10:16:38.295Z,11.40
2019-03-21T10:19:07.996Z,11.70
2019-03-21T10:21:43.327Z,11.90
2019-03-21T10:24:09.101Z,11.90
2019-03-21T10:26:38.908Z,11.90
2019-03-21T10:29:08.623Z,11.90
2019-03-21T10:31:38.305Z,12.20
2019-03-21T10:34:08.098Z,12.40
2019-03-21T10:36:37.984Z,12.60
2019-03-21T10:39:08.172Z,12.70
2019-03-21T10:41:37.872Z,12.80
2019-03-21T10:44:07.670Z,12.90
2019-03-21T10:46:37.463Z,13.00
2019-03-21T10:49:07.156Z,13.40
2019-03-21T10:51:36.853Z,13.60
2019-03-21T10:54:06.548Z,13.90
2019-03-21T10:56:36.233Z,13.80
2019-03-21T10:59:06.009Z,13.80
2019-03-21T11:01:35.701Z,14.00
2019-03-21T11:04:05.416Z,14.00
2019-03-21T11:06:35.336Z,14.10
2019-03-21T11:09:08.457Z,14.40
2019-03-21T11:11:38.254Z,15.00
2019-03-21T11:14:08.032Z,15.40
2019-03-21T11:16:37.754Z,15.70
2019-03-21T11:19:07.480Z,15.90
2019-03-21T11:21:37.167Z,15.50
2019-03-21T11:24:07.010Z,15.40
2019-03-21T11:26:36.728Z,14.90
2019-03-21T11:29:06.518Z,15.60
2019-03-21T11:31:36.224Z,16.10
2019-03-21T11:34:06.008Z,16.10
2019-03-21T11:36:38.482Z,16.00
2019-03-21T11:39:08.623Z,16.40
2019-03-21T11:41:38.321Z,16.40
2019-03-21T11:44:08.091Z,16.50
2019-03-21T11:46:37.914Z,16.80
2019-03-21T11:49:07.586Z,16.90
2019-03-21T11:51:37.524Z,17.00
2019-03-21T11:54:07.298Z,17.00
2019-03-21T11:56:37.086Z,17.20
2019-03-21T11:59:06.833Z,17.20
2019-03-21T12:01:36.589Z,17.30
2019-03-21T12:04:06.463Z,17.30
2019-03-21T12:06:36.138Z,17.30
2019-03-21T12:09:07.748Z,17.10
2019-03-21T12:11:37.638Z,17.40
2019-03-21T12:14:07.505Z,17.60
2019-03-21T12:16:37.270Z,17.60
2019-03-21T12:19:07.048Z,17.80
2019-03-21T12:21:36.759Z,17.70
2019-03-21T12:24:06.501Z,17.70
2019-03-21T12:26:36.184Z,17.70
2019-03-21T12:29:05.965Z,17.70
2019-03-21T12:31:42.874Z,17.70
2019-03-21T12:34:12.621Z,17.80
2019-03-21T12:36:42.420Z,17.90
2019-03-21T12:39:12.147Z,17.90
2019-03-21T12:41:44.776Z,17.80
2019-03-21T12:44:14.473Z,17.60
2019-03-21T12:46:44.231Z,17.50
2019-03-21T12:49:14.047Z,17.10
2019-03-21T12:51:45.752Z,17.40
2019-03-21T12:54:15.169Z,17.50
2019-03-21T12:56:44.940Z,17.60
2019-03-21T12:59:14.732Z,17.50
2019-03-21T13:01:44.510Z,17.60
2019-03-21T13:04:14.459Z,17.20
2019-03-21T13:06:44.153Z,17.00
2019-03-21T13:09:13.960Z,16.90
2019-03-21T13:11:43.664Z,16.80
2019-03-21T13:14:13.409Z,16.70
2019-03-21T13:16:43.204Z,16.30
2019-03-21T13:19:13.035Z,16.40
2019-03-21T13:21:42.787Z,16.80
2019-03-21T13:24:12.472Z,16.60
2019-03-21T13:26:42.269Z,16.50
2019-03-21T13:29:12.029Z,16.40
2019-03-21T13:31:41.851Z,16.60
2019-03-21T13:34:11.629Z,16.40
2019-03-21T13:36:41.365Z,16.40
2019-03-21T13:39:11.068Z,16.40
2019-03-21T13:41:40.918Z,16.10
2019-03-21T13:44:10.744Z,16.30
2019-03-21T13:46:40.413Z,16.20
2019-03-21T13:49:10.112Z,16.40
2019-03-21T13:51:39.906Z,16.10
2019-03-21T13:54:09.692Z,16.30
2019-03-21T13:56:39.483Z,16.20
2019-03-21T13:59:09.172Z,16.20
2019-03-21T14:01:38.884Z,16.20
2019-03-21T14:04:08.590Z,16.40
2019-03-21T14:06:38.326Z,16.40
2019-03-21T14:09:09.162Z,16.00
2019-03-21T14:11:38.896Z,16.00
2019-03-21T14:14:08.557Z,16.00
2019-03-21T14:16:38.405Z,16.10
2019-03-21T14:19:08.159Z,16.30
2019-03-21T14:21:37.985Z,16.30
2019-03-21T14:24:07.681Z,16.20
2019-03-21T14:26:37.492Z,16.20
2019-03-21T14:29:12.636Z,16.30
2019-03-21T14:31:38.733Z,16.00
2019-03-21T14:34:08.463Z,16.00
2019-03-21T14:36:38.256Z,15.90
2019-03-21T14:39:08.266Z,15.90
2019-03-21T14:41:37.997Z,16.00
2019-03-21T14:44:07.701Z,16.00
2019-03-21T14:46:37.512Z,16.20
2019-03-21T14:49:07.315Z,16.10
2019-03-21T14:51:37.075Z,16.00
2019-03-21T14:54:06.964Z,15.90
2019-03-21T14:56:36.659Z,15.90
2019-03-21T14:59:06.451Z,15.90
2019-03-21T15:01:36.191Z,15.80
2019-03-21T15:04:05.981Z,15.90
2019-03-21T15:06:35.743Z,15.70
2019-03-21T15:09:06.906Z,15.70
2019-03-21T15:11:36.721Z,15.80
2019-03-21T15:14:06.448Z,15.80
2019-03-21T15:16:36.180Z,15.70
2019-03-21T15:19:06.042Z,15.70
2019-03-21T15:21:35.862Z,15.70
2019-03-21T15:24:05.648Z,15.60
2019-03-21T15:26:35.393Z,15.60
2019-03-21T15:29:06.912Z,15.60
2019-03-21T15:31:36.595Z,15.50
2019-03-21T15:34:06.384Z,15.40
2019-03-21T15:36:36.111Z,15.40
2019-03-21T15:39:08.656Z,15.50
2019-03-21T15:41:39.040Z,15.50
2019-03-21T15:44:09.971Z,15.40
2019-03-21T15:46:39.636Z,15.50
2019-03-21T15:49:09.418Z,15.50
2019-03-21T15:51:39.097Z,15.50
2019-03-21T15:54:08.830Z,15.50
2019-03-21T15:56:38.732Z,15.40
2019-03-21T15:59:08.495Z,15.40
2019-03-21T16:01:38.244Z,15.20
2019-03-21T16:04:07.979Z,15.20
2019-03-21T16:06:37.747Z,15.20
2019-03-21T16:09:08.456Z,15.20
2019-03-21T16:11:38.338Z,15.10
2019-03-21T16:14:08.176Z,15.00
2019-03-21T16:16:37.945Z,15.10
2019-03-21T16:19:07.798Z,15.10
2019-03-21T16:21:37.534Z,15.20
2019-03-21T16:24:07.267Z,15.10
2019-03-21T16:26:37.065Z,15.10
2019-03-21T16:29:06.730Z,15.10
2019-03-21T16:31:36.422Z,15.10
2019-03-21T16:34:06.224Z,15.10
2019-03-21T16:36:54.819Z,15.00
2019-03-21T16:39:24.549Z,15.00
2019-03-21T16:41:54.357Z,15.00
2019-03-21T16:44:24.065Z,14.90
2019-03-21T16:46:53.816Z,14.70
2019-03-21T16:49:23.562Z,14.70
2019-03-21T16:51:53.421Z,14.60
2019-03-21T16:54:23.111Z,14.50
2019-03-21T16:56:52.944Z,14.50
2019-03-21T16:59:22.695Z,14.40
2019-03-21T17:01:52.427Z,14.50
2019-03-21T17:04:22.403Z,14.60
2019-03-21T17:06:54.126Z,14.60
2019-03-21T17:09:23.971Z,14.60
2019-03-21T17:11:53.725Z,14.60
2019-03-21T17:14:23.587Z,14.50
2019-03-21T17:16:53.414Z,14.40
2019-03-21T17:19:23.170Z,14.30
2019-03-21T17:21:52.951Z,14.20
2019-03-21T17:24:29.215Z,14.20
2019-03-21T17:26:54.202Z,14.10
2019-03-21T17:29:23.935Z,14.00
2019-03-21T17:31:54.845Z,13.90
2019-03-21T17:34:24.989Z,13.80
2019-03-21T17:36:54.756Z,13.90
2019-03-21T17:39:24.619Z,13.70
2019-03-21T17:41:54.316Z,13.70
2019-03-21T17:44:24.034Z,13.60
2019-03-21T17:46:53.729Z,13.50
2019-03-21T17:49:23.587Z,13.50
2019-03-21T17:51:53.369Z,13.40
2019-03-21T17:54:23.073Z,13.40
2019-03-21T17:56:52.820Z,13.30
2019-03-21T17:59:22.536Z,13.20
2019-03-21T18:01:52.292Z,13.10
2019-03-21T18:04:22.310Z,13.10
2019-03-21T18:06:52.132Z,13.00
2019-03-21T18:09:21.835Z,13.00
2019-03-21T18:11:51.524Z,12.90
2019-03-21T18:14:21.281Z,12.80
2019-03-21T18:16:50.950Z,12.80
2019-03-21T18:19:20.684Z,12.70
2019-03-21T18:21:50.420Z,12.70
2019-03-21T18:24:20.240Z,12.70
2019-03-21T18:26:49.961Z,12.60
2019-03-21T18:29:19.708Z,12.60
2019-03-21T18:31:49.389Z,12.50
2019-03-21T18:34:19.159Z,12.30
2019-03-21T18:36:48.964Z,12.30
2019-03-21T18:39:18.875Z,12.20
2019-03-21T18:41:48.762Z,12.10
2019-03-21T18:44:18.559Z,12.10
2019-03-21T18:46:48.427Z,12.00
2019-03-21T18:49:18.153Z,11.90
2019-03-21T18:51:48.048Z,11.70
2019-03-21T18:54:17.710Z,11.70
2019-03-21T18:56:47.460Z,11.70
2019-03-21T18:59:17.205Z,11.60
2019-03-21T19:01:57.856Z,11.60
2019-03-21T19:04:18.407Z,11.50
2019-03-21T19:06:48.347Z,11.50
2019-03-21T19:09:18.272Z,11.50
2019-03-21T19:11:48.102Z,11.30
2019-03-21T19:14:17.846Z,11.30
2019-03-21T19:16:47.620Z,11.20
2019-03-21T19:19:17.390Z,11.20
2019-03-21T19:21:47.103Z,11.10
2019-03-21T19:24:16.812Z,11.10
2019-03-21T19:26:46.649Z,10.90
2019-03-21T19:29:16.412Z,10.90
2019-03-21T19:31:46.260Z,10.90
2019-03-21T19:34:16.027Z,10.90
2019-03-21T19:36:45.800Z,10.80
2019-03-21T19:39:15.530Z,10.70
2019-03-21T19:41:45.398Z,10.80
2019-03-21T19:44:15.162Z,10.70
2019-03-21T19:46:45.006Z,10.60
2019-03-21T19:49:14.725Z,10.60
2019-03-21T19:51:44.473Z,10.40
2019-03-21T19:54:14.329Z,10.40
2019-03-21T19:56:44.064Z,10.30
2019-03-21T19:59:13.877Z,10.30
2019-03-21T20:01:43.657Z,10.30
2019-03-21T20:04:13.423Z,10.20
2019-03-21T20:06:43.214Z,10.20
2019-03-21T20:09:12.908Z,10.20
2019-03-21T20:11:42.590Z,10.10
2019-03-21T20:14:12.416Z,10.00
2019-03-21T20:16:42.196Z,9.90
2019-03-21T20:19:11.942Z,9.80
2019-03-21T20:21:47.716Z,9.70
2019-03-21T20:24:13.219Z,9.70
2019-03-21T20:26:43.009Z,9.60
2019-03-21T20:29:12.917Z,9.60
2019-03-21T20:31:42.724Z,9.60
2019-03-21T20:34:12.975Z,9.60
2019-03-21T20:36:43.033Z,9.60
2019-03-21T20:39:12.840Z,9.60
2019-03-21T20:41:42.522Z,9.50
2019-03-21T20:44:15.268Z,9.50
2019-03-21T20:46:43.657Z,9.30
2019-03-21T20:49:13.407Z,9.30
2019-03-21T20:51:43.122Z,9.20
2019-03-21T20:54:13.071Z,9.20
2019-03-21T20:56:42.837Z,9.20
2019-03-21T20:59:12.604Z,9.20
2019-03-21T21:01:42.342Z,9.10
2019-03-21T21:04:12.129Z,9.10
2019-03-21T21:06:41.868Z,9.00
2019-03-21T21:09:11.660Z,8.90
2019-03-21T21:11:41.387Z,8.90
2019-03-21T21:14:11.193Z,8.90
2019-03-21T21:16:40.868Z,8.90
2019-03-21T21:19:10.550Z,8.90
2019-03-21T21:21:40.304Z,8.90
2019-03-21T21:24:10.012Z,8.70
2019-03-21T21:26:39.916Z,8.70
2019-03-21T21:29:09.650Z,8.70
2019-03-21T21:31:39.540Z,8.60
2019-03-21T21:34:09.307Z,8.60
2019-03-21T21:36:39.056Z,8.60
2019-03-21T21:39:09.358Z,8.50
2019-03-21T21:41:39.152Z,8.40
2019-03-21T21:44:09.751Z,8.40
2019-03-21T21:46:39.567Z,8.40
2019-03-21T21:49:09.304Z,8.20
2019-03-21T21:51:39.057Z,8.20
2019-03-21T21:54:08.807Z,8.30
2019-03-21T21:56:38.515Z,8.20
2019-03-21T21:59:08.290Z,8.10
2019-03-21T22:01:37.953Z,8.10
2019-03-21T22:04:07.694Z,8.00
2019-03-21T22:06:37.459Z,8.10
2019-03-21T22:09:10.516Z,8.10
2019-03-21T22:11:40.252Z,8.10
2019-03-21T22:14:09.960Z,7.90
2019-03-21T22:16:39.721Z,7.90
2019-03-21T22:19:09.517Z,7.90
2019-03-21T22:21:39.324Z,7.90
2019-03-21T22:24:09.204Z,7.90
2019-03-21T22:26:38.966Z,7.80
2019-03-21T22:29:08.721Z,7.70
2019-03-21T22:31:38.424Z,7.60
2019-03-21T22:34:08.210Z,7.60
2019-03-21T22:36:48.886Z,7.50
2019-03-21T22:39:09.885Z,7.50
2019-03-21T22:41:39.684Z,7.60
2019-03-21T22:44:09.407Z,7.50
2019-03-21T22:46:39.101Z,7.40
2019-03-21T22:49:08.898Z,7.30
2019-03-21T22:51:38.335Z,7.30
2019-03-21T22:54:08.110Z,7.40
2019-03-21T22:56:41.496Z,7.30
2019-03-21T22:59:09.547Z,7.40
2019-03-21T23:01:39.288Z,7.40
2019-03-21T23:04:09.136Z,7.20
2019-03-21T23:06:38.872Z,7.20
2019-03-21T23:09:08.968Z,7.10
2019-03-21T23:11:38.936Z,7.00
2019-03-21T23:14:08.718Z,7.00
2019-03-21T23:16:38.408Z,6.90
2019-03-21T23:19:08.179Z,6.70
2019-03-21T23:21:37.974Z,6.70
2019-03-21T23:24:07.685Z,6.50
2019-03-21T23:26:37.412Z,6.50
2019-03-21T23:29:07.101Z,6.30
2019-03-21T23:31:36.965Z,6.40
2019-03-21T23:34:06.744Z,6.50
2019-03-21T23:36:36.565Z,6.40
2019-03-21T23:39:07.916Z,6.40
2019-03-21T23:41:37.597Z,6.20
2019-03-21T23:44:07.289Z,6.20
2019-03-21T23:46:37.041Z,6.10
2019-03-21T23:49:06.715Z,6.10
2019-03-21T23:51:37.955Z,6.00
2019-03-21T23:54:07.628Z,6.00
2019-03-21T23:56:37.462Z,5.90
2019-03-21T23:59:07.212Z,6.00
